Time;durP1;ratioP1;P1;durP2;ratioP2;P2;SDS_P1;SDS_P2;PMS_P1;PMS_P2;Temp;Humidity;BMP_temperature;BMP_pressure;BME280_temperature;BME280_humidity;BME280_pressure;Samples;Min_cycle;Max_cycle;Signal;HPM_P1;HPM_P2
2023/06/05 00:00:34;;;;;;;2.20;1.10;;;;;;;14.50;51.71;100265.90;107843;1256;74507;-65
2023/06/05 00:03:01;;;;;;;2.50;1.10;;;;;;;14.50;51.36;100268.02;107705;1257;71376;-65
2023/06/05 00:05:31;;;;;;;1.90;0.80;;;;;;;14.48;52.71;100270.73;107821;1257;71902;-66
2023/06/05 00:07:59;;;;;;;2.00;1.30;;;;;;;14.46;54.38;100272.08;107664;1258;59866;-65
2023/06/05 00:10:27;;;;;;;1.20;1.10;;;;;;;14.39;55.27;100272.42;107923;1260;60076;-65
2023/06/05 00:12:55;;;;;;;0.90;0.80;;;;;;;14.32;57.18;100270.83;107898;1259;73087;-65
2023/06/05 00:15:23;;;;;;;;;;;;;;;14.26;56.96;100269.15;107856;1257;69256;-65
2023/06/05 00:17:51;;;;;;;0.80;0.60;;;;;;;14.19;58.41;100269.30;107772;1257;72460;-65
2023/06/05 00:20:19;;;;;;;1.00;0.90;;;;;;;14.11;59.38;100269.33;108051;1257;59790;-65
2023/06/05 00:22:48;;;;;;;;;;;;;;;14.06;60.29;100270.48;108100;1256;59864;-65
2023/06/05 00:25:16;;;;;;;0.70;0.70;;;;;;;13.99;61.17;100271.66;107960;1261;73965;-65
2023/06/05 00:27:44;;;;;;;1.90;1.00;;;;;;;13.95;61.43;100270.10;108012;1257;68489;-65
2023/06/05 00:30:13;;;;;;;2.00;0.90;;;;;;;13.94;60.99;100268.04;107876;1257;73154;-65
2023/06/05 00:32:41;;;;;;;1.00;0.80;;;;;;;13.91;60.75;100266.25;107877;1257;60154;-65
2023/06/05 00:35:09;;;;;;;2.00;0.90;;;;;;;13.88;60.58;100264.95;107931;1257;59764;-65
2023/06/05 00:37:39;;;;;;;1.30;1.00;;;;;;;13.85;61.56;100263.69;107869;1257;73672;-65
2023/06/05 00:40:07;;;;;;;1.40;0.80;;;;;;;13.82;61.86;100262.61;107886;1257;69897;-66
2023/06/05 00:42:35;;;;;;;;;;;;;;;13.79;63.14;100266.45;107915;1257;72639;-65
2023/06/05 00:45:03;;;;;;;3.90;1.00;;;;;;;13.74;64.38;100265.26;107995;1261;58912;-65
2023/06/05 00:47:32;;;;;;;1.50;0.90;;;;;;;13.71;64.73;100262.77;107812;1258;59749;-66
2023/06/05 00:50:00;;;;;;;4.30;0.90;;;;;;;13.69;64.24;100265.67;107952;1257;74028;-66
2023/06/05 00:52:27;;;;;;;1.80;1.10;;;;;;;13.67;63.89;100264.20;107952;1261;69262;-65
2023/06/05 00:54:55;;;;;;;3.00;1.30;;;;;;;13.66;64.82;100267.25;107851;1257;72952;-65
2023/06/05 00:57:24;;;;;;;4.30;1.60;;;;;;;13.61;63.34;100269.02;107682;1257;60703;-65
2023/06/05 00:59:53;;;;;;;1.40;1.20;;;;;;;13.57;63.88;100269.36;107521;1257;60720;-66
2023/06/05 01:02:20;;;;;;;1.10;1.00;;;;;;;13.53;62.84;100268.35;107745;1261;73568;-67
2023/06/05 01:04:48;;;;;;;2.20;1.10;;;;;;;13.50;64.31;100264.42;107773;1257;70145;-70
2023/06/05 01:07:17;;;;;;;5.60;1.10;;;;;;;13.45;64.64;100266.21;107491;1257;73022;-66
2023/06/05 01:09:45;;;;;;;1.70;1.10;;;;;;;13.41;66.57;100267.09;107688;1257;60129;-66
2023/06/05 01:12:17;;;;;;;;;;;;;;;13.35;66.65;100268.75;107650;1257;60667;-66
2023/06/05 01:14:49;;;;;;;1.60;1.20;;;;;;;13.27;66.39;100265.91;107800;1258;73693;-66
2023/06/05 01:17:18;;;;;;;2.10;1.00;;;;;;;13.20;67.19;100268.52;107802;1256;69743;-66
2023/06/05 01:19:49;;;;;;;1.10;1.00;;;;;;;13.15;69.27;100270.64;107779;1256;72525;-66
2023/06/05 01:22:17;;;;;;;2.80;1.00;;;;;;;13.08;69.74;100273.09;107636;1257;59869;-66
2023/06/05 01:24:47;;;;;;;3.40;1.10;;;;;;;13.02;66.57;100269.48;107785;1257;59706;-67
2023/06/05 01:27:16;;;;;;;1.70;1.30;;;;;;;13.00;66.39;100271.66;107598;1257;73577;-67
2023/06/05 01:30:02;;;;;;;1.40;1.20;;;;;;;12.98;68.26;100264.70;107554;1257;69021;-65
2023/06/05 01:32:44;;;;;;;2.50;1.10;;;;;;;12.95;67.72;100262.89;107560;1257;72360;-68
2023/06/05 01:35:17;;;;;;;4.10;1.30;;;;;;;12.94;71.12;100265.42;107797;1257;59117;-66
2023/06/05 01:37:48;;;;;;;1.30;1.20;;;;;;;12.90;69.79;100264.71;107623;1256;58799;-67
2023/06/05 01:40:19;;;;;;;1.40;1.20;;;;;;;12.88;70.12;100263.23;107782;1257;73955;-67
2023/06/05 01:42:47;;;;;;;1.10;1.00;;;;;;;12.84;70.60;100264.96;107868;1256;69516;-67
2023/06/05 01:45:15;;;;;;;4.60;1.50;;;;;;;12.80;71.87;100265.98;107953;1256;71361;-66
2023/06/05 01:47:47;;;;;;;2.50;1.00;;;;;;;12.76;72.56;100265.13;107752;1258;59884;-66
2023/06/05 01:50:16;;;;;;;1.70;1.30;;;;;;;12.68;75.67;100269.69;107777;1255;60378;-66
2023/06/05 01:52:46;;;;;;;1.70;1.20;;;;;;;12.61;75.52;100272.43;107969;1257;74112;-67
2023/06/05 01:55:16;;;;;;;3.80;1.60;;;;;;;12.55;75.93;100269.15;107672;1257;69307;-67
2023/06/05 01:57:44;;;;;;;1.50;1.20;;;;;;;12.50;77.13;100265.66;107584;1257;73444;-66
2023/06/05 02:00:13;;;;;;;2.30;1.10;;;;;;;12.46;74.86;100270.23;107629;1257;59800;-65
2023/06/05 02:02:41;;;;;;;1.40;1.20;;;;;;;12.44;72.28;100269.20;107662;1257;59782;-65
2023/06/05 02:05:10;;;;;;;3.90;1.20;;;;;;;12.45;72.63;100268.33;107682;1257;73790;-65
2023/06/05 02:07:39;;;;;;;1.80;1.40;;;;;;;12.41;72.63;100264.45;107638;1256;70294;-65
2023/06/05 02:10:08;;;;;;;2.50;1.30;;;;;;;12.39;72.77;100267.34;107825;1257;71871;-66
2023/06/05 02:12:41;;;;;;;;;;;;;;;12.40;73.14;100268.52;107873;1259;59785;-65
2023/06/05 02:15:13;;;;;;;1.60;1.10;;;;;;;12.39;75.10;100270.85;107843;1256;59671;-66
2023/06/05 02:17:53;;;;;;;1.40;1.20;;;;;;;12.37;74.88;100272.86;107898;1257;73598;-65
2023/06/05 02:20:23;;;;;;;3.30;1.20;;;;;;;12.37;76.65;100280.07;107947;1257;69090;-65
2023/06/05 02:22:51;;;;;;;2.40;1.20;;;;;;;12.34;76.08;100281.42;107738;1257;71375;-65
2023/06/05 02:25:20;;;;;;;1.90;1.10;;;;;;;12.35;77.85;100280.68;107871;1257;59779;-65
2023/06/05 02:27:49;;;;;;;2.00;1.20;;;;;;;12.33;79.81;100284.27;107931;1257;59681;-65
2023/06/05 02:30:17;;;;;;;2.40;1.50;;;;;;;12.29;79.27;100283.73;107911;1256;73717;-65
2023/06/05 02:32:45;;;;;;;1.30;1.10;;;;;;;12.24;82.23;100283.91;107938;1254;70057;-65
2023/06/05 02:35:13;;;;;;;4.30;1.40;;;;;;;12.23;85.08;100281.86;107763;1257;72117;-65
2023/06/05 02:37:44;;;;;;;;;;;;;;;12.24;87.17;100282.54;108049;1257;59869;-64
2023/06/05 02:40:12;;;;;;;2.10;1.40;;;;;;;12.26;91.40;100288.41;107821;1257;60625;-65
2023/06/05 02:42:40;;;;;;;2.90;1.40;;;;;;;12.28;91.65;100285.70;107833;1257;73667;-65
2023/06/05 02:45:08;;;;;;;2.60;1.70;;;;;;;12.31;92.75;100289.27;107939;1254;69252;-65
2023/06/05 02:47:36;;;;;;;1.50;1.40;;;;;;;12.32;93.99;100283.42;107871;1254;72956;-65
2023/06/05 02:50:04;;;;;;;;;;;;;;;12.34;96.89;100279.48;107807;1257;60020;-65
2023/06/05 02:52:35;;;;;;;2.30;1.70;;;;;;;12.35;96.62;100280.85;107738;1256;59963;-64
2023/06/05 02:55:09;;;;;;;5.40;1.70;;;;;;;12.35;96.91;100277.50;107849;1254;73331;-65
2023/06/05 02:57:41;;;;;;;2.80;1.90;;;;;;;12.37;99.56;100275.51;107681;1256;70046;-64
2023/06/05 03:00:16;;;;;;;3.50;1.80;;;;;;;12.39;100.00;100276.64;107626;1257;71512;-67
2023/06/05 03:02:48;;;;;;;2.40;2.00;;;;;;;12.43;100.00;100276.31;107633;1257;58835;-64
2023/06/05 03:05:24;;;;;;;3.10;1.90;;;;;;;12.46;100.00;100274.25;107644;1257;58777;-64
2023/06/05 03:07:54;;;;;;;6.50;2.20;;;;;;;12.52;100.00;100273.86;107614;1255;73689;-63
2023/06/05 03:10:22;;;;;;;5.70;2.20;;;;;;;12.57;100.00;100274.16;107592;1256;69356;-63
2023/06/05 03:12:50;;;;;;;2.00;1.90;;;;;;;12.62;100.00;100268.50;107880;1255;72425;-63
2023/06/05 03:15:18;;;;;;;4.60;2.10;;;;;;;12.66;100.00;100268.33;107731;1257;59735;-64
2023/06/05 03:17:47;;;;;;;2.50;2.20;;;;;;;12.74;100.00;100265.91;107764;1254;59821;-63
2023/06/05 03:20:17;;;;;;;2.80;2.50;;;;;;;12.84;100.00;100270.73;107815;1260;72937;-65
2023/06/05 03:22:45;;;;;;;4.30;2.10;;;;;;;12.95;100.00;100269.77;107894;1257;69766;-66
2023/06/05 03:25:14;;;;;;;3.50;2.60;;;;;;;13.05;100.00;100271.61;107870;1256;72940;-66
2023/06/05 03:27:43;;;;;;;3.60;2.20;;;;;;;13.16;100.00;100269.06;107824;1256;62089;-65
2023/06/05 03:30:16;;;;;;;3.50;2.40;;;;;;;13.27;100.00;100270.85;107837;1256;60718;-66
2023/06/05 03:32:47;;;;;;;2.30;2.10;;;;;;;13.40;100.00;100269.11;107809;1256;73740;-66
2023/06/05 03:35:17;;;;;;;3.80;1.90;;;;;;;13.53;100.00;100273.96;107859;1256;69138;-65
2023/06/05 03:37:45;;;;;;;2.00;1.80;;;;;;;13.67;100.00;100274.90;107918;1256;72386;-66
2023/06/05 03:40:12;;;;;;;3.10;1.90;;;;;;;13.82;100.00;100273.17;107842;1254;61583;-67
2023/06/05 03:42:40;;;;;;;;;;;;;;;13.96;100.00;100271.83;107860;1256;59623;-66
2023/06/05 03:45:08;;;;;;;1.90;1.30;;;;;;;14.09;98.91;100271.19;107994;1257;74527;-66
2023/06/05 03:47:37;;;;;;;3.60;1.60;;;;;;;14.25;92.48;100272.41;107859;1255;68291;-66
2023/06/05 03:50:07;;;;;;;1.70;1.60;;;;;;;14.42;90.77;100271.75;107849;1257;71577;-67
2023/06/05 03:52:39;;;;;;;1.60;1.40;;;;;;;14.57;89.07;100270.66;107737;1255;59771;-68
2023/06/05 03:55:09;;;;;;;1.60;1.20;;;;;;;14.71;88.07;100273.17;107876;1255;59638;-66
2023/06/05 03:57:40;;;;;;;1.20;1.00;;;;;;;14.85;85.48;100272.28;107668;1256;73684;-65
2023/06/05 04:00:11;;;;;;;2.20;1.20;;;;;;;15.01;76.95;100271.13;107694;1255;68390;-67
2023/06/05 04:02:46;;;;;;;0.90;0.90;;;;;;;15.17;73.45;100268.22;107557;1257;72484;-67
2023/06/05 04:05:15;;;;;;;0.80;0.80;;;;;;;15.29;69.91;100267.23;107636;1259;60181;-65
2023/06/05 04:07:42;;;;;;;1.30;1.00;;;;;;;15.40;69.26;100269.27;107799;1256;59782;-65
2023/06/05 04:10:10;;;;;;;2.10;1.00;;;;;;;15.51;67.27;100267.46;107602;1256;74005;-65
2023/06/05 04:12:39;;;;;;;2.90;1.20;;;;;;;15.60;67.58;100266.65;107785;1254;70436;-65
2023/06/05 04:15:09;;;;;;;1.30;1.00;;;;;;;15.69;68.34;100270.22;107811;1259;72470;-66
2023/06/05 04:17:37;;;;;;;1.20;1.10;;;;;;;15.80;69.10;100267.53;107836;1257;59820;-66
2023/06/05 04:20:13;;;;;;;2.30;1.30;;;;;;;15.91;69.79;100266.75;108107;1254;58891;-66
2023/06/05 04:22:42;;;;;;;3.90;1.00;;;;;;;16.02;70.65;100270.20;107804;1257;73768;-66
2023/06/05 04:25:13;;;;;;;1.90;1.20;;;;;;;16.16;70.10;100268.37;107876;1254;69645;-66
2023/06/05 04:27:45;;;;;;;1.90;1.20;;;;;;;16.30;68.91;100268.98;107732;1257;72518;-67
2023/06/05 04:30:13;;;;;;;2.60;1.20;;;;;;;16.43;67.89;100271.63;107841;1256;59783;-66
2023/06/05 04:32:41;;;;;;;0.70;0.70;;;;;;;16.53;67.38;100271.24;107769;1256;59681;-66
2023/06/05 04:35:11;;;;;;;1.00;0.90;;;;;;;16.69;67.00;100272.62;107916;1256;73940;-66
2023/06/05 04:37:39;;;;;;;1.80;1.00;;;;;;;16.83;67.69;100274.86;108077;1255;69938;-67
2023/06/05 04:40:09;;;;;;;2.40;1.00;;;;;;;16.97;64.60;100275.64;107864;1257;71698;-68
2023/06/05 04:42:38;;;;;;;2.60;1.00;;;;;;;17.08;63.25;100275.52;107968;1256;60813;-67
2023/06/05 04:45:07;;;;;;;;;;;;;;;17.23;63.66;100274.93;107878;1256;59749;-67
2023/06/05 04:47:37;;;;;;;0.90;0.80;;;;;;;17.37;63.00;100278.39;107792;1256;73735;-67
2023/06/05 04:50:06;;;;;;;1.60;0.90;;;;;;;17.49;62.70;100280.44;107882;1257;69050;-67
2023/06/05 04:52:36;;;;;;;1.50;0.90;;;;;;;17.65;63.69;100276.66;107851;1257;72980;-68
2023/06/05 04:55:04;;;;;;;1.00;0.90;;;;;;;17.78;61.64;100274.77;107809;1255;60162;-66
2023/06/05 04:57:32;;;;;;;1.70;0.80;;;;;;;17.92;61.51;100271.98;107734;1256;60059;-70
2023/06/05 05:00:07;;;;;;;0.90;0.70;;;;;;;18.05;61.21;100269.57;107664;1254;73624;-67
2023/06/05 05:02:36;;;;;;;0.70;0.70;;;;;;;18.19;61.05;100269.89;107647;1255;68922;-70
2023/06/05 05:05:05;;;;;;;1.50;0.80;;;;;;;18.33;61.27;100271.66;107722;1257;72451;-65
2023/06/05 05:07:34;;;;;;;3.10;0.80;;;;;;;18.45;59.64;100271.56;107681;1256;59800;-64
2023/06/05 05:10:02;;;;;;;1.40;1.00;;;;;;;18.56;57.11;100269.09;107686;1254;59776;-66
2023/06/05 05:12:30;;;;;;;0.70;0.70;;;;;;;18.70;57.98;100269.20;108072;1253;74043;-66
2023/06/05 05:14:58;;;;;;;1.50;0.90;;;;;;;18.82;56.01;100266.68;108198;1254;69125;-66
2023/06/05 05:17:26;;;;;;;1.60;0.90;;;;;;;18.92;57.11;100270.95;108167;1254;72373;-66
2023/06/05 05:19:54;;;;;;;2.30;1.00;;;;;;;19.03;55.66;100268.27;108111;1256;59749;-66
2023/06/05 05:22:26;;;;;;;3.60;1.10;;;;;;;19.15;55.16;100270.69;107948;1253;59688;-65
2023/06/05 05:24:54;;;;;;;0.90;0.70;;;;;;;19.28;53.85;100269.77;108271;1253;73623;-66
2023/06/05 05:27:24;;;;;;;4.00;1.00;;;;;;;19.40;52.48;100269.84;108264;1252;68395;-67
2023/06/05 05:29:52;;;;;;;1.30;1.10;;;;;;;19.49;50.19;100270.42;108196;1253;73121;-66
2023/06/05 05:32:20;;;;;;;;;;;;;;;19.62;51.33;100271.83;108038;1254;60319;-63
2023/06/05 05:34:50;;;;;;;1.10;0.70;;;;;;;19.72;49.35;100271.89;107975;1253;59513;-63
2023/06/05 05:37:18;;;;;;;2.50;0.60;;;;;;;19.82;47.73;100272.56;108133;1253;74510;-63
2023/06/05 05:39:46;;;;;;;7.70;0.90;;;;;;;19.95;46.33;100271.44;108145;1254;70217;-64
2023/06/05 05:42:16;;;;;;;3.00;0.70;;;;;;;20.07;45.75;100269.34;108001;1253;72285;-66
2023/06/05 05:44:44;;;;;;;2.10;0.80;;;;;;;20.17;45.10;100273.06;108080;1253;59869;-66
2023/06/05 05:47:12;;;;;;;4.80;0.80;;;;;;;20.25;44.25;100272.88;108192;1253;59735;-64
2023/06/05 05:49:40;;;;;;;1.10;0.60;;;;;;;20.34;44.34;100269.20;108255;1254;74087;-63
2023/06/05 05:52:08;;;;;;;5.10;0.70;;;;;;;20.46;43.87;100269.90;108307;1254;68157;-66
2023/06/05 05:54:36;;;;;;;4.00;0.80;;;;;;;20.55;43.21;100273.49;108275;1253;72353;-65
2023/06/05 05:57:04;;;;;;;1.40;1.10;;;;;;;20.63;42.69;100269.43;108309;1254;59849;-66
2023/06/05 05:59:32;;;;;;;3.50;0.90;;;;;;;20.72;42.86;100270.36;108176;1253;61068;-66
2023/06/05 06:02:00;;;;;;;1.30;0.70;;;;;;;20.81;42.85;100269.66;108236;1253;73624;-65
2023/06/05 06:04:29;;;;;;;2.20;0.60;;;;;;;20.92;42.36;100269.34;108112;1255;68331;-65
2023/06/05 06:06:56;;;;;;;4.10;0.80;;;;;;;21.01;41.68;100267.06;108205;1253;71287;-67
2023/06/05 06:09:25;;;;;;;1.80;0.60;;;;;;;21.09;41.11;100266.61;108108;1253;59977;-66
2023/06/05 06:11:55;;;;;;;;;;;;;;;21.19;40.58;100266.41;108179;1253;59142;-65
2023/06/05 06:14:23;;;;;;;0.90;0.60;;;;;;;21.26;40.39;100266.96;108359;1253;73644;-65
2023/06/05 06:16:51;;;;;;;3.00;0.80;;;;;;;21.29;40.36;100262.95;108319;1253;70367;-64
2023/06/05 06:19:23;;;;;;;1.00;0.80;;;;;;;21.32;40.23;100263.61;108273;1255;72360;-66
2023/06/05 06:21:51;;;;;;;0.70;0.70;;;;;;;21.36;39.59;100261.83;108260;1256;60521;-65
2023/06/05 06:24:22;;;;;;;0.70;0.70;;;;;;;21.44;39.24;100261.60;108390;1253;59693;-65
2023/06/05 06:26:52;;;;;;;2.10;0.70;;;;;;;21.54;38.90;100262.78;108256;1254;74028;-66
2023/06/05 06:29:23;;;;;;;1.90;1.00;;;;;;;21.63;38.48;100262.48;108316;1253;69520;-67
2023/06/05 06:31:52;;;;;;;1.90;0.80;;;;;;;21.75;37.98;100262.20;108257;1252;72361;-66
2023/06/05 06:35:58;;;;;;;0.60;0.60;;;;;;;21.48;38.70;100264.88;101585;1289;600975;-67
2023/06/05 06:38:30;;;;;;;3.80;0.90;;;;;;;21.84;38.67;100262.59;103846;1265;59768;-68
2023/06/05 06:40:58;;;;;;;1.40;0.80;;;;;;;21.98;37.63;100258.91;103650;1266;60311;-67
2023/06/05 06:43:26;;;;;;;0.70;0.50;;;;;;;22.08;36.76;100261.89;103658;1264;71920;-68
2023/06/05 06:46:02;;;;;;;1.00;0.80;;;;;;;22.10;36.35;100260.83;103531;1281;70066;-65
2023/06/05 06:48:30;;;;;;;;;;;;;;;22.13;36.26;100264.10;103409;1272;252045;-66
2023/06/05 06:50:58;;;;;;;0.60;0.60;;;;;;;22.19;35.99;100264.60;103921;1269;60844;-66
2023/06/05 06:53:26;;;;;;;1.50;0.60;;;;;;;22.26;36.09;100265.83;103960;1264;60711;-66
2023/06/05 06:55:53;;;;;;;;;;;;;;;22.27;35.33;100261.22;104076;1267;72064;-66
2023/06/05 06:58:21;;;;;;;;;;;;;;;22.31;35.44;100260.42;104267;1262;69746;-66
2023/06/05 07:00:49;;;;;;;;;;;;;;;22.33;35.34;100262.94;107004;1263;72469;-67
2023/06/05 07:03:17;;;;;;;1.50;0.50;;;;;;;22.38;35.29;100261.64;105703;1264;59769;-68
2023/06/05 07:05:45;;;;;;;1.50;0.60;;;;;;;22.42;34.60;100263.96;104139;1264;61710;-67
2023/06/05 07:08:13;;;;;;;;;;;;;;;22.49;33.84;100262.88;104220;1285;71896;-69
2023/06/05 07:10:42;;;;;;;2.10;0.70;;;;;;;22.56;34.39;100262.04;104188;1268;69830;-67
2023/06/05 07:13:09;;;;;;;1.10;0.90;;;;;;;22.56;33.73;100263.38;104171;1269;72617;-68
2023/06/05 07:15:37;;;;;;;3.00;0.70;;;;;;;22.61;33.45;100259.73;103962;1269;59818;-67
2023/06/05 07:18:05;;;;;;;0.70;0.50;;;;;;;22.62;33.11;100258.95;103988;1264;60320;-66
2023/06/05 07:20:33;;;;;;;0.80;0.60;;;;;;;22.64;33.71;100256.96;103974;1267;72978;-66
2023/06/05 07:23:01;;;;;;;;;;;;;;;22.70;32.57;100258.23;103992;1275;69063;-67
2023/06/05 07:25:28;;;;;;;;;;;;;;;22.76;33.92;100260.58;103996;1263;72576;-67
2023/06/05 07:27:59;;;;;;;0.80;0.60;;;;;;;22.84;33.31;100258.19;103950;1268;59742;-67
2023/06/05 07:30:28;;;;;;;5.70;0.70;;;;;;;22.90;33.54;100255.66;103966;1263;59765;-67
2023/06/05 07:32:56;;;;;;;1.20;0.70;;;;;;;22.91;32.51;100252.70;104007;1279;72919;-67
2023/06/05 07:35:24;;;;;;;0.80;0.80;;;;;;;22.97;33.05;100254.90;104261;1261;69027;-67
2023/06/05 07:37:52;;;;;;;1.10;0.70;;;;;;;23.11;32.39;100256.05;107045;1262;72521;-69
2023/06/05 07:40:20;;;;;;;3.90;0.90;;;;;;;23.20;30.84;100255.29;104224;1263;60118;-67
2023/06/05 07:42:48;;;;;;;1.20;0.80;;;;;;;23.24;30.63;100250.43;104174;1264;59908;-67
2023/06/05 07:45:16;;;;;;;;;;;;;;;23.32;30.66;100245.47;103964;1268;73662;-67
2023/06/05 07:47:44;;;;;;;0.60;0.60;;;;;;;23.42;30.67;100243.77;104069;1268;69079;-68
2023/06/05 07:50:11;;;;;;;0.70;0.60;;;;;;;23.52;30.55;100247.69;103927;1280;72903;-69
2023/06/05 07:52:39;;;;;;;1.40;0.90;;;;;;;23.59;29.36;100248.11;103840;1266;59895;-72
2023/06/05 07:55:07;;;;;;;1.80;1.10;;;;;;;23.68;29.44;100241.46;104086;1263;60282;-68
2023/06/05 07:57:36;;;;;;;1.50;0.90;;;;;;;23.77;28.77;100248.89;103977;1268;73332;-68
2023/06/05 08:00:09;;;;;;;0.70;0.70;;;;;;;23.80;29.26;100246.54;105673;1263;69711;-68
2023/06/05 08:02:40;;;;;;;2.60;0.80;;;;;;;23.77;28.40;100246.77;105804;1263;72576;-67
2023/06/05 08:05:08;;;;;;;1.80;0.90;;;;;;;23.77;28.41;100245.50;104418;1266;59810;-69
2023/06/05 08:07:36;;;;;;;1.40;0.80;;;;;;;23.81;29.21;100244.16;104145;1267;60519;-69
2023/06/05 08:10:06;;;;;;;1.60;0.50;;;;;;;23.92;29.36;100243.48;104111;1270;73565;-68
2023/06/05 08:12:34;;;;;;;1.00;0.50;;;;;;;24.08;29.12;100247.27;104373;1265;69088;-67
2023/06/05 08:15:02;;;;;;;1.10;0.80;;;;;;;24.18;29.79;100256.17;104000;1263;72912;-68
2023/06/05 08:17:30;;;;;;;1.00;0.90;;;;;;;24.27;30.00;100253.02;104037;1265;59783;-69
2023/06/05 08:19:58;;;;;;;1.10;0.60;;;;;;;24.41;29.97;100251.58;104089;1266;60117;-69
2023/06/05 08:22:25;;;;;;;;;;;;;;;24.56;29.70;100253.88;104173;1266;73139;-67
2023/06/05 08:24:54;;;;;;;1.40;0.60;;;;;;;24.56;29.82;100256.17;103687;1281;69062;-65
2023/06/05 08:27:22;;;;;;;1.50;0.60;;;;;;;24.51;28.22;100254.50;103866;1265;73058;-67
2023/06/05 08:29:51;;;;;;;1.80;0.80;;;;;;;24.45;27.94;100249.40;104160;1263;59730;-64
2023/06/05 08:32:20;;;;;;;2.10;0.60;;;;;;;24.30;29.72;100255.79;104108;1264;60128;-68
2023/06/05 08:34:49;;;;;;;3.90;0.80;;;;;;;24.16;30.10;100257.27;104117;1265;73749;-68
2023/06/05 08:37:17;;;;;;;2.10;0.80;;;;;;;24.08;29.63;100260.30;104040;1268;69460;-68
2023/06/05 08:39:46;;;;;;;0.90;0.70;;;;;;;24.09;27.89;100258.96;104168;1263;72944;-67
2023/06/05 08:42:17;;;;;;;2.40;0.90;;;;;;;24.14;27.99;100258.86;103948;1256;59823;-68
2023/06/05 08:44:47;;;;;;;2.10;0.90;;;;;;;24.23;28.14;100254.27;104556;1256;60770;-66
2023/06/05 08:47:30;;;;;;;0.70;0.60;;;;;;;24.18;28.11;100255.30;104180;1260;71824;-66
2023/06/05 08:50:00;;;;;;;1.10;0.80;;;;;;;24.02;28.40;100253.70;104423;1257;68375;-67
2023/06/05 08:52:29;;;;;;;1.40;1.00;;;;;;;23.97;28.01;100250.95;104708;1256;72296;-66
2023/06/05 08:54:57;;;;;;;1.70;1.10;;;;;;;23.95;28.49;100245.90;104712;1251;60000;-63
2023/06/05 08:57:27;;;;;;;1.30;1.00;;;;;;;24.14;28.99;100247.44;105739;1252;60137;-65
2023/06/05 08:59:56;;;;;;;1.90;0.80;;;;;;;24.33;27.55;100246.98;105043;1259;72723;-65
2023/06/05 09:02:23;;;;;;;2.00;1.10;;;;;;;24.44;27.57;100242.52;108297;1250;69727;-66
2023/06/05 09:04:51;;;;;;;;;;;;;;;24.52;27.50;100238.05;106508;1252;72403;-67
2023/06/05 09:07:19;;;;;;;2.00;1.10;;;;;;;24.60;27.50;100238.37;105289;1252;59798;-68
2023/06/05 09:09:47;;;;;;;;;;;;;;;24.63;26.71;100234.38;104763;1257;60688;-68
2023/06/05 09:12:15;;;;;;;1.20;0.90;;;;;;;24.68;26.84;100229.08;104484;1253;71877;-67
2023/06/05 09:14:42;;;;;;;1.20;0.80;;;;;;;24.69;26.14;100225.07;104658;1269;69319;-66
2023/06/05 09:17:13;;;;;;;1.10;0.80;;;;;;;24.73;27.03;100223.83;104935;1255;72920;-67
2023/06/05 09:19:47;;;;;;;0.90;0.80;;;;;;;24.82;26.85;100222.08;104534;1257;59792;-66
2023/06/05 09:22:16;;;;;;;2.70;0.80;;;;;;;24.87;26.16;100221.36;104553;1252;59852;-67
2023/06/05 09:24:46;;;;;;;1.80;0.80;;;;;;;24.91;26.43;100222.19;104624;1257;72973;-65
2023/06/05 09:27:16;;;;;;;3.70;0.80;;;;;;;25.00;27.63;100221.29;104393;1251;70256;-67
2023/06/05 09:29:45;;;;;;;3.10;1.00;;;;;;;25.13;27.41;100225.59;104586;1257;72469;-69
2023/06/05 09:32:18;;;;;;;1.20;0.80;;;;;;;25.19;27.72;100225.35;104491;1254;59841;-70
2023/06/05 09:34:53;;;;;;;0.90;0.90;;;;;;;25.12;26.54;100224.83;104694;1251;60722;-66
2023/06/05 09:37:21;;;;;;;2.20;0.90;;;;;;;24.87;27.41;100224.96;105653;1253;72925;-67
2023/06/05 09:39:49;;;;;;;;;;;;;;;24.72;27.99;100225.48;107050;1250;69363;-69
2023/06/05 09:42:17;;;;;;;1.30;1.20;;;;;;;24.58;28.06;100226.40;107160;1251;73363;-68
2023/06/05 09:44:57;;;;;;;2.30;0.90;;;;;;;24.45;27.46;100222.77;104758;1253;60173;-68
2023/06/05 09:47:25;;;;;;;0.80;0.80;;;;;;;24.35;27.50;100221.34;105089;1251;60097;-68
2023/06/05 09:49:57;;;;;;;2.60;0.70;;;;;;;24.39;27.41;100215.23;105239;1251;72660;-68
2023/06/05 09:52:25;;;;;;;0.90;0.90;;;;;;;24.54;26.49;100215.00;105040;1250;69109;-69
2023/06/05 09:54:54;;;;;;;1.40;0.90;;;;;;;24.66;25.80;100207.24;104551;1251;72791;-69
2023/06/05 09:57:22;;;;;;;3.10;0.80;;;;;;;24.76;26.22;100200.61;104542;1253;60230;-69
2023/06/05 09:59:54;;;;;;;1.00;1.00;;;;;;;24.87;26.30;100200.97;104652;1257;60641;-68
2023/06/05 10:02:28;;;;;;;0.80;0.80;;;;;;;24.92;26.25;100204.48;108100;1250;72903;-70
2023/06/05 10:05:00;;;;;;;3.40;0.90;;;;;;;24.89;26.02;100202.97;107041;1256;69971;-67
2023/06/05 10:07:30;;;;;;;1.10;1.10;;;;;;;24.86;26.15;100202.50;105162;1256;72898;-67
2023/06/05 10:09:58;;;;;;;1.40;0.90;;;;;;;24.83;25.96;100198.04;105060;1255;60173;-66
2023/06/05 10:12:27;;;;;;;;;;;;;;;24.89;26.06;100198.83;104710;1258;59884;-65
2023/06/05 10:14:55;;;;;;;2.00;0.90;;;;;;;24.98;26.45;100198.16;104853;1255;73060;-65
2023/06/05 10:17:23;;;;;;;;;;;;;;;25.08;26.77;100198.11;104707;1267;69549;-67
2023/06/05 10:19:51;;;;;;;2.10;0.80;;;;;;;25.15;26.74;100196.89;105037;1251;71901;-65
2023/06/05 10:22:19;;;;;;;1.50;0.80;;;;;;;25.16;25.88;100192.98;104451;1257;59634;-67
2023/06/05 10:24:51;;;;;;;1.50;1.00;;;;;;;25.21;26.06;100197.02;104545;1251;59755;-66
2023/06/05 10:27:56;;;;;;;0.80;0.80;;;;;;;25.28;25.84;100195.30;104853;1251;73667;-67
2023/06/05 10:30:33;;;;;;;1.00;0.90;;;;;;;25.45;26.28;100193.30;104538;1256;69224;-67
2023/06/05 10:33:09;;;;;;;2.90;1.00;;;;;;;25.54;25.38;100189.98;104453;1256;72503;-65
2023/06/05 10:36:01;;;;;;;1.10;1.00;;;;;;;25.54;25.46;100187.03;104366;1254;59743;-65
2023/06/05 10:38:29;;;;;;;1.60;1.00;;;;;;;25.44;24.06;100187.36;104390;1253;60800;-65
2023/06/05 10:40:58;;;;;;;0.80;0.80;;;;;;;25.31;25.20;100186.05;104377;1253;73778;-65
2023/06/05 10:43:33;;;;;;;1.20;0.90;;;;;;;25.32;25.57;100182.80;104766;1253;69978;-71
2023/06/05 10:46:02;;;;;;;1.00;1.00;;;;;;;25.38;25.52;100179.69;104355;1254;72533;-68
2023/06/05 10:49:17;;;;;;;5.20;1.50;;;;;;;25.48;25.60;100177.77;104411;1257;60556;-69
2023/06/05 10:51:51;;;;;;;4.00;1.10;;;;;;;25.72;26.44;100176.02;104491;1253;60389;-69
2023/06/05 10:54:23;;;;;;;1.20;0.70;;;;;;;25.90;25.40;100167.23;104505;1252;73608;-68
2023/06/05 11:00:25;;;;;;;4.10;1.10;;;;;;;26.26;25.77;100156.64;104595;1256;71749;-69
2023/06/05 11:02:53;;;;;;;4.10;1.10;;;;;;;26.34;25.88;100156.17;104905;1253;60504;-69
2023/06/05 11:05:21;;;;;;;;;;;;;;;26.24;25.20;100154.51;107677;1255;59935;-70
2023/06/05 11:08:15;;;;;;;1.10;0.90;;;;;;;26.17;26.02;100155.05;105680;1256;73752;-70
2023/06/05 11:11:05;;;;;;;0.80;0.80;;;;;;;26.21;26.27;100151.38;105888;1253;68315;-69
2023/06/05 11:13:55;;;;;;;3.20;0.90;;;;;;;26.25;26.69;100150.33;104931;1252;72450;-69
2023/06/05 11:16:41;;;;;;;3.00;0.90;;;;;;;26.29;26.01;100152.80;101645;1307;601507;-68
2023/06/05 11:19:29;;;;;;;;;;;;;;;26.28;25.37;100150.22;104073;1267;59857;-70
2023/06/05 11:22:11;;;;;;;1.00;1.00;;;;;;;26.26;25.90;100153.66;103515;1275;59894;-69
2023/06/05 11:24:38;;;;;;;0.90;0.80;;;;;;;26.22;26.72;100148.39;103785;1272;70751;-69
2023/06/05 11:27:08;;;;;;;;;;;;;;;26.20;26.47;100148.10;103736;1275;69118;-69
2023/06/05 11:29:37;;;;;;;3.40;1.00;;;;;;;26.13;26.16;100148.41;103245;1274;251475;-68
2023/06/05 11:32:12;;;;;;;0.80;0.80;;;;;;;26.04;26.58;100148.42;103854;1268;59887;-69
2023/06/05 11:34:41;;;;;;;1.50;0.80;;;;;;;26.06;26.70;100147.68;103855;1270;61122;-68
2023/06/05 11:37:18;;;;;;;3.10;0.90;;;;;;;26.16;25.89;100143.27;103281;1273;72534;-69
2023/06/05 11:39:46;;;;;;;1.20;0.90;;;;;;;26.28;26.67;100142.27;103833;1272;70175;-69